Time;durP1;ratioP1;P1;durP2;ratioP2;P2;SDS_P1;SDS_P2;PMS_P1;PMS_P2;Temp;Humidity;BMP_temperature;BMP_pressure;BME280_temperature;BME280_humidity;BME280_pressure;Samples;Min_cycle;Max_cycle;Signal;HPM_P1;HPM_P2
2023/01/22 00:01:38;;;;;;;34.72;13.52;;;;;;;-146.73;100.00;56421.06;6094129;23;20013;-91
2023/01/22 00:04:04;;;;;;;38.13;14.40;;;;;;;-146.73;100.00;56421.06;6119005;23;20347;-90
2023/01/22 00:06:33;;;;;;;39.65;14.73;;;;;;;-146.73;100.00;56421.06;6129313;23;20025;-91
2023/01/22 00:09:02;;;;;;;36.88;13.70;;;;;;;-146.73;100.00;56421.06;6146968;23;20495;-89
2023/01/22 00:11:28;;;;;;;46.17;16.25;;;;;;;-146.73;100.00;56421.06;6120115;23;20355;-90
2023/01/22 00:13:56;;;;;;;44.40;16.83;;;;;;;-146.73;100.00;56421.06;6145110;23;20020;-90
2023/01/22 00:16:22;;;;;;;48.65;16.90;;;;;;;-146.73;100.00;56421.06;6119909;23;20041;-90
2023/01/22 00:18:48;;;;;;;45.42;15.68;;;;;;;-146.73;100.00;56421.06;6148841;23;20091;-89
2023/01/22 00:21:14;;;;;;;46.75;16.17;;;;;;;-146.73;100.00;56421.06;6123136;23;20213;-90
2023/01/22 00:23:40;;;;;;;42.92;16.52;;;;;;;-146.73;100.00;56421.06;6123085;23;20017;-90
2023/01/22 00:26:06;;;;;;;41.22;16.48;;;;;;;-146.73;100.00;56421.06;6123853;23;20039;-91
2023/01/22 00:28:36;;;;;;;43.85;16.75;;;;;;;-146.73;100.00;56421.06;6147454;23;20286;-91
2023/01/22 00:31:09;;;;;;;42.40;15.95;;;;;;;-146.73;100.00;56421.06;6149889;23;20009;-89
2023/01/22 00:33:38;;;;;;;36.03;15.07;;;;;;;-146.73;100.00;56421.06;6124354;23;20051;-90
2023/01/22 00:36:17;;;;;;;40.55;16.13;;;;;;;-146.73;100.00;56421.06;6124865;23;20014;-90
2023/01/22 00:38:46;;;;;;;43.53;16.48;;;;;;;-146.73;100.00;56421.06;6148917;23;20351;-90
2023/01/22 00:41:15;;;;;;;40.00;15.32;;;;;;;-146.73;100.00;56421.06;6147999;23;20443;-92
2023/01/22 00:43:47;;;;;;;44.17;16.52;;;;;;;-146.73;100.00;56421.06;6146037;23;20064;-90
2023/01/22 00:46:16;;;;;;;46.72;17.98;;;;;;;-146.73;100.00;56421.06;6149311;23;20420;-91
2023/01/22 00:48:48;;;;;;;43.67;16.50;;;;;;;-146.73;100.00;56421.06;6148753;23;20501;-92
2023/01/22 00:51:20;;;;;;;45.33;16.85;;;;;;;-146.73;100.00;56421.06;6148874;23;20025;-90
2023/01/22 00:53:46;;;;;;;42.88;17.02;;;;;;;-146.73;100.00;56421.06;6148654;23;20009;-91
2023/01/22 00:56:22;;;;;;;45.50;17.48;;;;;;;-146.73;100.00;56421.06;6148130;23;20096;-90
2023/01/22 00:58:48;;;;;;;48.17;17.13;;;;;;;-146.73;100.00;56421.06;6150604;23;20005;-89
2023/01/22 01:01:23;;;;;;;49.67;15.57;;;;;;;-146.73;100.00;56421.06;6148547;23;20048;-90
2023/01/22 01:03:48;;;;;;;49.63;18.73;;;;;;;-146.73;100.00;56421.06;6121542;23;20068;-90
2023/01/22 01:06:17;;;;;;;51.03;17.35;;;;;;;-146.73;100.00;56421.06;6143618;23;20021;-91
2023/01/22 01:08:56;;;;;;;49.42;18.60;;;;;;;-146.73;100.00;56421.06;6144852;23;20025;-90
2023/01/22 01:11:25;;;;;;;53.05;17.73;;;;;;;-146.73;100.00;56421.06;6123965;23;20020;-91
2023/01/22 01:13:52;;;;;;;49.03;18.38;;;;;;;-146.73;100.00;56421.06;6150470;23;20029;-91
2023/01/22 01:16:30;;;;;;;49.85;17.55;;;;;;;-146.73;100.00;56421.06;6122514;23;20078;-90
2023/01/22 01:19:08;;;;;;;55.25;20.30;;;;;;;-146.73;100.00;56421.06;6151694;23;20423;-89
2023/01/22 01:21:35;;;;;;;58.40;19.58;;;;;;;-146.73;100.00;56421.06;6149007;23;20344;-90
2023/01/22 01:24:06;;;;;;;52.75;18.75;;;;;;;-146.73;100.00;56421.06;6124398;23;20064;-90
2023/01/22 01:26:48;;;;;;;63.08;19.83;;;;;;;-146.73;100.00;56421.06;6124284;23;20124;-90
2023/01/22 01:29:20;;;;;;;56.38;20.20;;;;;;;-146.73;100.00;56421.06;6147279;23;20010;-90
2023/01/22 01:31:46;;;;;;;51.05;19.73;;;;;;;-146.73;100.00;56421.06;6148239;23;20376;-90
2023/01/22 01:34:15;;;;;;;59.97;19.77;;;;;;;-146.73;100.00;56421.06;6150484;23;20005;-91
2023/01/22 01:36:46;;;;;;;50.78;20.00;;;;;;;-146.73;100.00;56421.06;6150749;23;20464;-90
2023/01/22 01:39:15;;;;;;;53.47;19.67;;;;;;;-146.73;100.00;56421.06;6122386;23;20013;-90
2023/01/22 01:41:41;;;;;;;52.78;20.73;;;;;;;-146.73;100.00;56421.06;6122411;23;20025;-91
2023/01/22 01:44:33;;;;;;;;;;;;;;;;;;;;;
2023/01/22 01:47:04;;;;;;;50.65;20.80;;;;;;;-146.73;100.00;56421.06;6147973;23;20084;-90
2023/01/22 01:49:52;;;;;;;54.00;18.98;;;;;;;-146.73;100.00;56421.06;6147764;23;20012;-90
2023/01/22 01:52:19;;;;;;;42.72;16.90;;;;;;;-146.73;100.00;56421.06;6146968;23;20355;-89
2023/01/22 01:54:52;;;;;;;49.25;18.17;;;;;;;-146.73;100.00;56421.06;6120084;23;20013;-89
2023/01/22 01:57:26;;;;;;;50.83;18.05;;;;;;;-146.73;100.00;56421.06;6145241;23;20005;-89
2023/01/22 01:59:53;;;;;;;46.75;18.98;;;;;;;-146.73;100.00;56421.06;6150170;23;20029;-91
2023/01/22 02:02:19;;;;;;;47.58;17.40;;;;;;;-146.73;100.00;56421.06;6148939;23;20005;-89
2023/01/22 02:04:49;;;;;;;49.95;18.70;;;;;;;-146.73;100.00;56421.06;6122028;23;20018;-90
2023/01/22 02:07:18;;;;;;;46.80;17.02;;;;;;;-146.73;100.00;56421.06;6128376;23;20100;-90
2023/01/22 02:09:46;;;;;;;43.97;15.60;;;;;;;-146.73;100.00;56421.06;6091155;23;20096;-89
2023/01/22 02:12:12;;;;;;;48.47;17.23;;;;;;;-146.73;100.00;56421.06;6124182;23;20084;-90
2023/01/22 02:14:45;;;;;;;50.05;19.88;;;;;;;-146.73;100.00;56421.06;6093610;23;20014;-89
2023/01/22 02:17:23;;;;;;;;;;;;;;;-146.73;100.00;56421.06;6119187;23;20018;-90
2023/01/22 02:19:48;;;;;;;46.97;18.10;;;;;;;-146.73;100.00;56421.06;6092344;23;19908;-88
2023/01/22 02:22:21;;;;;;;42.38;17.13;;;;;;;-146.73;100.00;56421.06;6116879;23;20040;-88
2023/01/22 02:24:48;;;;;;;46.25;17.70;;;;;;;-146.73;100.00;56421.06;6118530;23;20535;-91
2023/01/22 02:27:13;;;;;;;43.42;14.55;;;;;;;-146.73;100.00;56421.06;6119231;23;20437;-91
2023/01/22 02:29:39;;;;;;;40.10;14.98;;;;;;;-146.73;100.00;56421.06;6092395;23;20029;-90
2023/01/22 02:32:14;;;;;;;41.08;15.45;;;;;;;-146.73;100.00;56421.06;6091954;23;20100;-90
2023/01/22 02:34:40;;;;;;;36.70;13.55;;;;;;;-146.73;100.00;56421.06;6091293;23;20484;-90
2023/01/22 02:37:06;;;;;;;35.25;14.05;;;;;;;-146.73;100.00;56421.06;6091916;23;20014;-91
2023/01/22 02:39:32;;;;;;;31.73;11.63;;;;;;;-146.73;100.00;56421.06;6091041;23;20037;-90
2023/01/22 02:42:00;;;;;;;31.40;12.07;;;;;;;-146.73;100.00;56421.06;6117621;23;20021;-91
2023/01/22 02:44:26;;;;;;;36.53;12.45;;;;;;;-146.73;100.00;56421.06;6118369;23;20040;-89
2023/01/22 02:46:52;;;;;;;32.05;11.85;;;;;;;-146.73;100.00;56421.06;6091389;23;20013;-90
2023/01/22 02:49:22;;;;;;;31.75;12.15;;;;;;;-146.73;100.00;56421.06;6118724;23;20513;-91
2023/01/22 02:51:50;;;;;;;35.35;14.23;;;;;;;-146.73;100.00;56421.06;6092920;23;20033;-90
2023/01/22 02:54:16;;;;;;;36.45;14.20;;;;;;;-146.73;100.00;56421.06;6091994;23;20018;-91
2023/01/22 02:56:42;;;;;;;39.22;15.02;;;;;;;-146.73;100.00;56421.06;6117244;23;20033;-90
2023/01/22 02:59:09;;;;;;;36.97;13.60;;;;;;;-146.73;100.00;56421.06;6114529;23;20056;-91
2023/01/22 03:04:36;;;;;;;31.98;11.25;;;;;;;-146.73;100.00;56421.06;6175875;23;20135;-92
2023/01/22 03:07:02;;;;;;;35.60;13.35;;;;;;;-146.73;100.00;56421.06;6179978;23;20044;-92
2023/01/22 03:09:28;;;;;;;33.70;13.18;;;;;;;-146.73;100.00;56421.06;6154953;23;20008;-94
2023/01/22 03:11:54;;;;;;;37.42;13.60;;;;;;;-146.73;100.00;56421.06;6156749;23;20008;-94
2023/01/22 03:22:35;;;;;;;29.13;12.05;;;;;;;-146.73;100.00;56421.06;6182515;23;20028;-92
2023/01/22 03:25:01;;;;;;;35.90;14.20;;;;;;;-146.73;100.00;56421.06;6156512;23;20430;-91
2023/01/22 03:27:28;;;;;;;31.00;11.93;;;;;;;-146.73;100.00;56421.06;6153692;23;20017;-94
2023/01/22 03:29:54;;;;;;;34.15;12.90;;;;;;;-146.73;100.00;56421.06;6156143;23;20048;-92
2023/01/22 03:32:20;;;;;;;29.48;11.05;;;;;;;-146.73;100.00;56421.06;6155041;23;20376;-94
2023/01/22 03:34:45;;;;;;;25.40;10.27;;;;;;;-146.73;100.00;56421.06;6155643;23;20120;-92
2023/01/22 03:37:14;;;;;;;25.75;9.80;;;;;;;-146.73;100.00;56421.06;6156065;23;20048;-93
2023/01/22 03:39:41;;;;;;;27.80;10.63;;;;;;;-146.73;100.00;56421.06;6154851;23;20328;-92
2023/01/22 03:42:07;;;;;;;28.30;10.48;;;;;;;-146.73;100.00;56421.06;6180849;23;20012;-93
2023/01/22 03:44:33;;;;;;;30.45;11.32;;;;;;;-146.73;100.00;56421.06;6156078;23;20005;-92
2023/01/22 03:46:58;;;;;;;32.17;10.82;;;;;;;-146.73;100.00;56421.06;6181953;23;20025;-92
2023/01/22 03:49:24;;;;;;;28.90;11.52;;;;;;;-146.73;100.00;56421.06;6154653;23;20013;-93
2023/01/22 03:51:49;;;;;;;30.77;11.15;;;;;;;-146.73;100.00;56421.06;6155285;23;20009;-93
2023/01/22 03:54:15;;;;;;;30.25;13.05;;;;;;;-146.73;100.00;56421.06;6159449;23;20013;-92
2023/01/22 03:56:41;;;;;;;33.15;11.30;;;;;;;-146.73;100.00;56421.06;6157873;23;20049;-93
2023/01/22 03:59:08;;;;;;;31.67;12.07;;;;;;;-146.73;100.00;56421.06;6158398;23;20008;-92
2023/01/22 04:01:33;;;;;;;35.83;13.07;;;;;;;-146.73;100.00;56421.06;6158200;23;20096;-93
2023/01/22 04:04:21;;;;;;;;;;;;;;;;;;;;;
2023/01/22 04:06:46;;;;;;;30.52;11.25;;;;;;;-146.73;100.00;56421.06;6155149;23;20093;-93
2023/01/22 04:09:13;;;;;;;29.73;11.05;;;;;;;-146.73;100.00;56421.06;6153351;23;20084;-92
2023/01/22 04:11:38;;;;;;;30.60;11.90;;;;;;;-146.73;100.00;56421.06;6152442;23;20010;-93
2023/01/22 04:14:04;;;;;;;30.80;12.25;;;;;;;-146.73;100.00;56421.06;6155145;23;20021;-94
2023/01/22 04:16:29;;;;;;;30.23;11.45;;;;;;;-146.73;100.00;56421.06;6153745;23;20060;-92
2023/01/22 04:18:55;;;;;;;28.90;10.65;;;;;;;-146.73;100.00;56421.06;6154905;23;20427;-94
2023/01/22 04:21:20;;;;;;;28.85;9.63;;;;;;;-146.73;100.00;56421.06;6153838;23;20439;-93
2023/01/22 04:23:45;;;;;;;26.02;9.93;;;;;;;-146.73;100.00;56421.06;6153512;23;20024;-94
2023/01/22 04:26:11;;;;;;;27.65;10.27;;;;;;;-146.73;100.00;56421.06;6153559;23;20013;-93
2023/01/22 04:28:37;;;;;;;31.27;10.82;;;;;;;-146.73;100.00;56421.06;6153519;23;20387;-93
2023/01/22 04:31:51;;;;;;;;;;;;;;;;;;;;;
2023/01/22 04:34:17;;;;;;;27.13;10.30;;;;;;;-146.73;100.00;56421.06;6119978;23;20081;-92
2023/01/22 04:36:50;;;;;;;27.40;9.93;;;;;;;-146.73;100.00;56421.06;6098348;23;20097;-94
2023/01/22 04:39:30;;;;;;;;;;;;;;;-146.73;100.00;56421.06;6099783;23;20018;-94
2023/01/22 04:42:21;;;;;;;25.40;10.60;;;;;;;-146.73;100.00;56421.06;6098768;23;19923;-93
2023/01/22 04:44:48;;;;;;;32.63;10.07;;;;;;;-146.73;100.00;56421.06;6098406;23;20097;-95
2023/01/22 04:47:13;;;;;;;33.17;12.25;;;;;;;-146.73;100.00;56421.06;6123827;23;20166;-94
2023/01/22 04:49:39;;;;;;;29.13;11.75;;;;;;;-146.73;100.00;56421.06;6096850;23;20475;-95
2023/01/22 04:52:04;;;;;;;26.52;9.73;;;;;;;-146.73;100.00;56421.06;6096646;23;20041;-95
2023/01/22 04:54:30;;;;;;;26.90;11.48;;;;;;;-146.73;100.00;56421.06;6118956;23;20026;-95
2023/01/22 04:56:55;;;;;;;30.05;10.95;;;;;;;-146.73;100.00;56421.06;6094276;23;20026;-95
2023/01/22 04:59:21;;;;;;;30.92;11.52;;;;;;;-146.73;100.00;56421.06;6090336;23;20359;-95
2023/01/22 05:01:49;;;;;;;30.40;11.57;;;;;;;-146.73;100.00;56421.06;6120040;23;20022;-93
2023/01/22 05:04:22;;;;;;;28.50;10.63;;;;;;;-146.73;100.00;56421.06;6095945;23;20027;-95
2023/01/22 05:06:48;;;;;;;35.97;11.48;;;;;;;-146.73;100.00;56421.06;6096219;23;20010;-94
2023/01/22 05:09:14;;;;;;;26.38;10.05;;;;;;;-146.73;100.00;56421.06;6114274;23;20465;-94
2023/01/22 05:11:55;;;;;;;24.55;9.15;;;;;;;-146.73;100.00;56421.06;6154530;23;20009;-95
2023/01/22 05:14:48;;;;;;;30.73;11.07;;;;;;;-146.73;100.00;56421.06;6141836;23;20526;-95
2023/01/22 05:17:16;;;;;;;28.25;10.27;;;;;;;-146.73;100.00;56421.06;6154445;23;20013;-95
2023/01/22 05:20:05;;;;;;;25.55;9.63;;;;;;;-146.73;100.00;56421.06;6125633;23;20013;-95
2023/01/22 05:22:51;;;;;;;27.10;9.70;;;;;;;-146.73;100.00;56421.06;6126364;23;20013;-95
2023/01/22 05:25:16;;;;;;;28.40;10.80;;;;;;;-146.73;100.00;56421.06;6126105;23;20093;-96
2023/01/22 05:27:42;;;;;;;29.08;10.77;;;;;;;-146.73;100.00;56421.06;6128711;23;20029;-94
2023/01/22 05:30:09;;;;;;;28.48;10.48;;;;;;;-146.73;100.00;56421.06;6127838;23;20379;-95
2023/01/22 05:32:35;;;;;;;26.38;10.73;;;;;;;-146.73;100.00;56421.06;6128210;23;20006;-96
2023/01/22 05:35:02;;;;;;;30.17;10.55;;;;;;;-146.73;100.00;56421.06;6128536;23;20067;-95
2023/01/22 05:37:27;;;;;;;29.77;10.60;;;;;;;-146.73;100.00;56421.06;6128563;23;20124;-96
2023/01/22 05:39:52;;;;;;;26.10;9.85;;;;;;;-146.73;100.00;56421.06;6128496;23;20052;-96
2023/01/22 05:42:19;;;;;;;27.95;11.23;;;;;;;-146.73;100.00;56421.06;6126947;23;20013;-95
2023/01/22 05:44:45;;;;;;;25.85;10.07;;;;;;;-146.73;100.00;56421.06;6128183;23;20101;-96
2023/01/22 05:47:12;;;;;;;31.85;11.15;;;;;;;-146.73;100.00;56421.06;6128529;23;20053;-96
2023/01/22 05:49:38;;;;;;;29.92;11.18;;;;;;;-146.73;100.00;56421.06;6129102;23;20010;-95
2023/01/22 05:52:03;;;;;;;26.75;10.55;;;;;;;-146.73;100.00;56421.06;6127442;23;20021;-96
2023/01/22 05:55:12;;;;;;;29.30;11.45;;;;;;;-146.73;100.00;56421.06;6137040;23;20435;-94
2023/01/22 05:57:54;;;;;;;;;;;;;;;;;;;;;
2023/01/22 06:00:20;;;;;;;27.15;10.68;;;;;;;-146.73;100.00;56421.06;6151536;23;20092;-95
2023/01/22 06:02:45;;;;;;;32.33;12.00;;;;;;;-146.73;100.00;56421.06;6157386;23;20009;-96
2023/01/22 06:05:12;;;;;;;30.67;11.93;;;;;;;-146.73;100.00;56421.06;6158691;23;20025;-94
2023/01/22 06:07:37;;;;;;;28.08;10.60;;;;;;;-146.73;100.00;56421.06;6159292;23;20021;-95
2023/01/22 06:10:03;;;;;;;27.63;11.05;;;;;;;-146.73;100.00;56421.06;6158936;23;20447;-94
2023/01/22 06:12:28;;;;;;;25.42;10.20;;;;;;;-146.73;100.00;56421.06;6158347;23;20443;-94
2023/01/22 06:14:56;;;;;;;30.17;10.15;;;;;;;-146.73;100.00;56421.06;6157535;23;20088;-96
2023/01/22 06:17:21;;;;;;;27.55;9.98;;;;;;;-146.73;100.00;56421.06;6159550;23;20009;-95
2023/01/22 06:19:52;;;;;;;25.20;10.85;;;;;;;-146.73;100.00;56421.06;6159103;23;20489;-96
2023/01/22 06:22:37;;;;;;;33.05;10.45;;;;;;;-146.73;100.00;56421.06;6158183;23;20067;-95
2023/01/22 06:25:04;;;;;;;27.85;10.07;;;;;;;-146.73;100.00;56421.06;6158656;23;20017;-95
2023/01/22 06:27:35;;;;;;;26.67;9.45;;;;;;;-146.73;100.00;56421.06;6185262;23;20423;-95
2023/01/22 06:30:01;;;;;;;27.65;10.48;;;;;;;-146.73;100.00;56421.06;6157233;23;20009;-95
2023/01/22 06:32:26;;;;;;;32.75;10.13;;;;;;;-146.73;100.00;56421.06;6157912;23;20028;-94
2023/01/22 06:34:53;;;;;;;25.20;9.52;;;;;;;-146.73;100.00;56421.06;6157765;23;20458;-95
2023/01/22 06:37:20;;;;;;;27.40;11.02;;;;;;;-146.73;100.00;56421.06;6158140;23;20434;-94
2023/01/22 06:39:45;;;;;;;28.55;10.40;;;;;;;-146.73;100.00;56421.06;6157159;23;20013;-95
2023/01/22 06:42:10;;;;;;;26.20;10.38;;;;;;;-146.73;100.00;56421.06;6156967;23;20020;-94
2023/01/22 06:44:36;;;;;;;25.30;10.50;;;;;;;-146.73;100.00;56421.06;6158192;23;20098;-95
2023/01/22 06:47:01;;;;;;;26.83;10.20;;;;;;;-146.73;100.00;56421.06;6158511;23;20016;-94
2023/01/22 06:49:27;;;;;;;29.67;11.07;;;;;;;-146.73;100.00;56421.06;6158401;23;20068;-95
2023/01/22 06:51:52;;;;;;;31.20;11.75;;;;;;;-146.73;100.00;56421.06;6158555;23;20095;-94
2023/01/22 06:54:17;;;;;;;44.97;12.43;;;;;;;-146.73;100.00;56421.06;6158951;23;20013;-94
2023/01/22 06:56:43;;;;;;;27.42;10.30;;;;;;;-146.73;100.00;56421.06;6184576;23;20012;-95
2023/01/22 06:59:08;;;;;;;25.55;9.73;;;;;;;-146.73;100.00;56421.06;6157545;23;20493;-95
2023/01/22 07:01:37;;;;;;;27.85;11.00;;;;;;;-146.73;100.00;56421.06;6156835;23;20020;-95
2023/01/22 07:04:02;;;;;;;29.27;11.70;;;;;;;-146.73;100.00;56421.06;6157995;23;20032;-94
2023/01/22 07:06:28;;;;;;;25.27;10.77;;;;;;;-146.73;100.00;56421.06;6157878;23;20017;-94
2023/01/22 07:08:55;;;;;;;34.85;11.63;;;;;;;-146.73;100.00;56421.06;6158614;23;20009;-95
2023/01/22 07:11:22;;;;;;;27.48;10.18;;;;;;;-146.73;100.00;56421.06;6133998;23;20079;-95
2023/01/22 07:14:05;;;;;;;24.35;10.27;;;;;;;-146.73;100.00;56421.06;6156982;23;20389;-94
2023/01/22 07:17:13;;;;;;;28.73;9.88;;;;;;;-146.73;100.00;56421.06;6140331;23;20012;-95
2023/01/22 07:19:52;;;;;;;22.95;9.10;;;;;;;-146.73;100.00;56421.06;6158240;23;20060;-95
2023/01/22 07:22:51;;;;;;;29.17;10.30;;;;;;;-146.73;100.00;56421.06;6159609;23;20013;-94
2023/01/22 07:28:57;;;;;;;22.40;8.82;;;;;;;-146.73;100.00;56421.06;6120198;23;20008;-95
2023/01/22 07:31:51;;;;;;;25.58;8.80;;;;;;;-146.73;100.00;56421.06;6099736;23;20092;-95
2023/01/22 07:34:22;;;;;;;25.27;8.95;;;;;;;-146.73;100.00;56421.06;6097581;23;20018;-95
2023/01/22 07:36:48;;;;;;;24.27;9.40;;;;;;;-146.73;100.00;56421.06;6097796;23;20009;-95
2023/01/22 07:39:13;;;;;;;23.45;9.07;;;;;;;-146.73;100.00;56421.06;6122709;23;20026;-95
2023/01/22 07:41:41;;;;;;;27.10;10.93;;;;;;;-146.73;100.00;56421.06;6097985;23;20424;-96
2023/01/22 07:44:07;;;;;;;25.98;10.23;;;;;;;-146.73;100.00;56421.06;6098218;23;20014;-95
2023/01/22 07:46:35;;;;;;;27.40;10.98;;;;;;;-146.73;100.00;56421.06;6097489;23;20371;-96
2023/01/22 07:49:00;;;;;;;28.17;11.00;;;;;;;-146.73;100.00;56421.06;6098712;23;20025;-95
2023/01/22 07:51:26;;;;;;;25.30;10.13;;;;;;;-146.73;100.00;56421.06;6097568;23;20018;-96
2023/01/22 07:53:55;;;;;;;28.08;11.25;;;;;;;-146.73;100.00;56421.06;6097997;23;20822;-95
2023/01/22 07:56:20;;;;;;;26.95;10.15;;;;;;;-146.73;100.00;56421.06;6129572;23;20016;-96
2023/01/22 07:58:46;;;;;;;27.17;10.98;;;;;;;-146.73;100.00;56421.06;6157682;23;20001;-94
2023/01/22 08:01:11;;;;;;;30.00;11.25;;;;;;;-146.73;100.00;56421.06;6157840;23;20088;-96
2023/01/22 08:03:37;;;;;;;24.88;10.18;;;;;;;-146.73;100.00;56421.06;6153458;23;20515;-93
2023/01/22 08:06:16;;;;;;;27.02;10.25;;;;;;;-146.73;100.00;56421.06;6151957;23;20021;-95
2023/01/22 08:08:51;;;;;;;30.00;10.32;;;;;;;-146.73;100.00;56421.06;6152059;23;20010;-95
2023/01/22 08:11:16;;;;;;;23.42;9.68;;;;;;;-146.73;100.00;56421.06;6152496;23;20440;-95
2023/01/22 08:13:42;;;;;;;25.13;9.25;;;;;;;-146.73;100.00;56421.06;6151776;23;20108;-95
2023/01/22 08:16:09;;;;;;;19.58;8.18;;;;;;;-146.73;100.00;56421.06;6153585;23;20463;-95
2023/01/22 08:18:39;;;;;;;23.13;8.43;;;;;;;-146.73;100.00;56421.06;6152670;23;20005;-93
2023/01/22 08:21:05;;;;;;;23.15;8.50;;;;;;;-146.73;100.00;56421.06;6149216;23;20021;-95
2023/01/22 08:23:30;;;;;;;21.13;8.93;;;;;;;-146.73;100.00;56421.06;6148396;23;20079;-95
2023/01/22 08:26:02;;;;;;;22.10;8.60;;;;;;;-146.73;100.00;56421.06;6149473;23;20017;-96
2023/01/22 08:28:28;;;;;;;25.02;9.55;;;;;;;-146.73;100.00;56421.06;6149161;23;20088;-95
2023/01/22 08:31:02;;;;;;;22.58;8.65;;;;;;;-146.73;100.00;56421.06;6148317;23;20021;-93
2023/01/22 08:33:39;;;;;;;21.33;8.75;;;;;;;-146.73;100.00;56421.06;6148858;23;20009;-95
2023/01/22 08:36:05;;;;;;;24.67;8.77;;;;;;;-146.73;100.00;56421.06;6152443;23;20064;-96
2023/01/22 08:38:30;;;;;;;22.60;8.27;;;;;;;-146.73;100.00;56421.06;6151725;23;20013;-94
2023/01/22 08:40:56;;;;;;;21.92;8.38;;;;;;;-146.73;100.00;56421.06;6149650;23;20103;-94
2023/01/22 08:43:21;;;;;;;21.20;9.35;;;;;;;-146.73;100.00;56421.06;6150524;23;20045;-94
2023/01/22 08:45:48;;;;;;;24.00;8.57;;;;;;;-146.73;100.00;56421.06;6155605;23;20010;-93
2023/01/22 08:48:14;;;;;;;23.52;8.38;;;;;;;-146.73;100.00;56421.06;6149847;23;20014;-93
2023/01/22 08:57:27;;;;;;;22.05;8.57;;;;;;;-146.73;100.00;56421.06;6165536;22;20039;-94
2023/01/22 08:59:55;;;;;;;24.52;8.80;;;;;;;-146.73;100.00;56421.06;6179961;23;20017;-95
2023/01/22 09:02:21;;;;;;;22.27;8.73;;;;;;;-146.73;100.00;56421.06;6209945;22;20005;-96
2023/01/22 09:04:46;;;;;;;21.70;7.72;;;;;;;-146.73;100.00;56421.06;6183449;23;20017;-94
2023/01/22 09:07:13;;;;;;;20.13;8.48;;;;;;;-146.73;100.00;56421.06;6184208;23;20076;-93
2023/01/22 09:09:39;;;;;;;18.17;7.53;;;;;;;-146.73;100.00;56421.06;6211609;22;20023;-94
2023/01/22 09:12:09;;;;;;;20.77;8.00;;;;;;;-146.73;100.00;56421.06;6186155;23;20001;-92
2023/01/22 09:14:35;;;;;;;19.92;7.82;;;;;;;-146.73;100.00;56421.06;6186368;22;20040;-93
2023/01/22 09:17:01;;;;;;;20.77;8.65;;;;;;;-146.73;100.00;56421.06;6212309;22;20044;-93
2023/01/22 09:19:33;;;;;;;21.48;7.60;;;;;;;-146.73;100.00;56421.06;6187418;22;20031;-93
2023/01/22 09:22:05;;;;;;;20.92;7.75;;;;;;;-146.73;100.00;56421.06;6187154;23;19993;-93
2023/01/22 09:24:31;;;;;;;18.55;7.47;;;;;;;-146.73;100.00;56421.06;6186390;23;20474;-94
2023/01/22 09:26:57;;;;;;;24.17;8.63;;;;;;;-146.73;100.00;56421.06;6210360;22;20005;-93
2023/01/22 09:30:45;;;;;;;24.17;8.50;;;;;;;-146.73;100.00;56421.06;6179230;23;20343;-94
2023/01/22 09:33:16;;;;;;;18.00;7.72;;;;;;;-146.73;100.00;56421.06;6179355;23;20009;-93
2023/01/22 09:35:41;;;;;;;22.20;9.32;;;;;;;-146.73;100.00;56421.06;6174820;23;20032;-93
2023/01/22 09:38:12;;;;;;;18.23;8.23;;;;;;;-146.73;100.00;56421.06;6168813;23;20005;-95
2023/01/22 09:40:51;;;;;;;18.75;7.72;;;;;;;-146.73;100.00;56421.06;6162030;23;20513;-95
2023/01/22 09:43:32;;;;;;;19.83;7.85;;;;;;;-146.73;100.00;56421.06;6162806;23;20017;-95
2023/01/22 09:46:02;;;;;;;22.83;8.07;;;;;;;-146.73;100.00;56421.06;6161723;23;20021;-94
2023/01/22 09:48:42;;;;;;;25.00;8.52;;;;;;;-146.73;100.00;56421.06;6156960;23;20118;-94
2023/01/22 09:51:13;;;;;;;15.98;7.00;;;;;;;-146.73;100.00;56421.06;6155527;23;20017;-94
2023/01/22 09:53:39;;;;;;;18.52;8.13;;;;;;;-146.73;100.00;56421.06;6156535;23;20012;-94
2023/01/22 09:56:10;;;;;;;18.23;7.70;;;;;;;-146.73;100.00;56421.06;6158382;23;20005;-94
2023/01/22 09:58:36;;;;;;;20.40;7.80;;;;;;;-146.73;100.00;56421.06;6157061;23;20025;-94
2023/01/22 10:01:05;;;;;;;20.17;7.78;;;;;;;-146.73;100.00;56421.06;6157877;23;20354;-94
2023/01/22 10:03:39;;;;;;;17.65;7.07;;;;;;;-146.73;100.00;56421.06;6160179;23;20025;-94
2023/01/22 10:06:14;;;;;;;18.40;7.65;;;;;;;-146.73;100.00;56421.06;6159858;23;20044;-94
2023/01/22 10:09:06;;;;;;;20.92;7.00;;;;;;;-146.73;100.00;56421.06;6162866;23;20046;-94
2023/01/22 10:11:34;;;;;;;19.30;7.65;;;;;;;-146.73;100.00;56421.06;6154703;23;20005;-94
2023/01/22 10:14:01;;;;;;;18.63;7.35;;;;;;;-146.73;100.00;56421.06;6161893;23;20001;-94
2023/01/22 10:16:30;;;;;;;21.10;7.75;;;;;;;-146.73;100.00;56421.06;6162288;23;20756;-94
2023/01/22 10:19:10;;;;;;;18.73;7.65;;;;;;;-146.73;100.00;56421.06;6161989;23;20009;-93
2023/01/22 10:21:44;;;;;;;18.80;7.20;;;;;;;-146.73;100.00;56421.06;6160701;23;20028;-93
2023/01/22 10:24:10;;;;;;;17.58;6.93;;;;;;;-146.73;100.00;56421.06;6160332;23;20023;-93
2023/01/22 10:26:47;;;;;;;20.80;7.97;;;;;;;-146.73;100.00;56421.06;6159107;23;20009;-92
2023/01/22 10:29:23;;;;;;;17.73;7.18;;;;;;;-146.73;100.00;56421.06;6159516;23;20085;-93
2023/01/22 10:31:53;;;;;;;22.80;9.13;;;;;;;-146.73;100.00;56421.06;6159538;23;20020;-93
2023/01/22 10:34:26;;;;;;;19.35;7.03;;;;;;;-146.73;100.00;56421.06;6158401;23;20148;-94
2023/01/22 10:36:54;;;;;;;21.10;8.50;;;;;;;-146.73;100.00;56421.06;6159552;23;20008;-94
2023/01/22 10:39:20;;;;;;;20.35;7.75;;;;;;;-146.73;100.00;56421.06;6157462;23;20021;-93
2023/01/22 10:41:47;;;;;;;21.95;8.05;;;;;;;-146.73;100.00;56421.06;6159201;23;20021;-93
2023/01/22 10:44:25;;;;;;;21.30;8.02;;;;;;;-146.73;100.00;56421.06;6159855;23;20031;-92
2023/01/22 10:46:53;;;;;;;20.30;8.43;;;;;;;-146.73;100.00;56421.06;6155850;23;20020;-94
2023/01/22 10:49:26;;;;;;;19.35;7.85;;;;;;;-146.73;100.00;56421.06;6153510;23;20004;-93
2023/01/22 10:51:56;;;;;;;;;;;;;;;-146.73;100.00;56421.06;6153947;23;20086;-94
2023/01/22 10:54:35;;;;;;;21.65;8.65;;;;;;;-146.73;100.00;56421.06;6154787;23;19915;-94
2023/01/22 10:57:19;;;;;;;22.33;7.85;;;;;;;-146.73;100.00;56421.06;6158350;23;20029;-94
2023/01/22 11:00:12;;;;;;;21.17;8.07;;;;;;;-146.73;100.00;56421.06;6156485;23;20100;-94
2023/01/22 11:02:42;;;;;;;19.95;8.07;;;;;;;-146.73;100.00;56421.06;6131311;23;20009;-94
2023/01/22 11:05:25;;;;;;;21.70;8.50;;;;;;;-146.73;100.00;56421.06;6154421;23;20124;-93
2023/01/22 11:08:13;;;;;;;21.23;7.78;;;;;;;-146.73;100.00;56421.06;6156979;23;20001;-94
2023/01/22 11:10:45;;;;;;;18.05;7.05;;;;;;;-146.73;100.00;56421.06;6155604;23;20043;-94
2023/01/22 11:13:18;;;;;;;21.77;7.93;;;;;;;-146.73;100.00;56421.06;6179452;23;20021;-93
2023/01/22 11:15:55;;;;;;;22.40;8.82;;;;;;;-146.73;100.00;56421.06;6152916;23;20023;-93
2023/01/22 11:18:37;;;;;;;21.00;8.35;;;;;;;-146.73;100.00;56421.06;6180531;23;20017;-94
2023/01/22 11:21:24;;;;;;;36.63;8.95;;;;;;;-146.73;100.00;56421.06;6152252;23;20411;-93
2023/01/22 11:24:09;;;;;;;23.42;9.20;;;;;;;-146.73;100.00;56421.06;6152107;23;20005;-93
2023/01/22 11:27:06;;;;;;;22.08;8.10;;;;;;;-146.73;100.00;56421.06;6153512;23;20115;-92
2023/01/22 11:33:35;;;;;;;18.73;7.60;;;;;;;-146.73;100.00;56421.06;6090448;23;20014;-93
2023/01/22 11:36:03;;;;;;;20.08;7.88;;;;;;;-146.73;100.00;56421.06;6062829;23;20018;-93
2023/01/22 11:38:50;;;;;;;19.08;8.55;;;;;;;-146.73;100.00;56421.06;6061952;23;20056;-94
2023/01/22 11:41:31;;;;;;;21.58;8.30;;;;;;;-146.73;100.00;56421.06;6086270;23;20014;-94
2023/01/22 11:44:40;;;;;;;19.77;7.65;;;;;;;-146.73;100.00;56421.06;6055809;23;20026;-94